sensor_id;sensor_type;location;lat;lon;timestamp;pressure;altitude;pressure_sealevel;temperature;humidity
40788;BME280;26497;52.494;7.546;2022-10-26T00:00:50;100929.22;;;14.58;65.08
40788;BME280;26497;52.494;7.546;2022-10-26T00:03:18;100932.94;;;14.41;65.49
40788;BME280;26497;52.494;7.546;2022-10-26T00:05:45;100926.97;;;14.24;65.64
40788;BME280;26497;52.494;7.546;2022-10-26T00:08:12;100923.53;;;14.14;65.86
40788;BME280;26497;52.494;7.546;2022-10-26T00:10:40;100925.34;;;14.12;66.13
40788;BME280;26497;52.494;7.546;2022-10-26T00:13:10;100922.47;;;14.30;65.53
40788;BME280;26497;52.494;7.546;2022-10-26T00:15:40;100921.63;;;14.27;65.90
40788;BME280;26497;52.494;7.546;2022-10-26T00:18:07;100924.41;;;14.14;65.92
40788;BME280;26497;52.494;7.546;2022-10-26T00:20:35;100922.69;;;14.10;65.92
40788;BME280;26497;52.494;7.546;2022-10-26T00:23:02;100921.88;;;14.04;65.98
40788;BME280;26497;52.494;7.546;2022-10-26T00:25:30;100917.50;;;13.98;66.12
40788;BME280;26497;52.494;7.546;2022-10-26T00:27:58;100921.94;;;13.96;66.22
40788;BME280;26497;52.494;7.546;2022-10-26T00:30:26;100921.97;;;13.94;66.22
40788;BME280;26497;52.494;7.546;2022-10-26T00:32:53;100917.44;;;14.04;65.64
40788;BME280;26497;52.494;7.546;2022-10-26T00:35:20;100920.00;;;14.15;65.25
40788;BME280;26497;52.494;7.546;2022-10-26T00:37:47;100915.66;;;14.06;65.51
40788;BME280;26497;52.494;7.546;2022-10-26T00:40:14;100915.72;;;14.01;65.56
40788;BME280;26497;52.494;7.546;2022-10-26T00:42:41;100915.69;;;14.05;65.45
40788;BME280;26497;52.494;7.546;2022-10-26T00:45:19;100911.47;;;13.86;65.58
40788;BME280;26497;52.494;7.546;2022-10-26T00:47:50;100906.28;;;13.73;65.49
40788;BME280;26497;52.494;7.546;2022-10-26T00:50:21;100916.06;;;13.67;65.61
40788;BME280;26497;52.494;7.546;2022-10-26T00:52:50;100916.91;;;13.69;65.72
40788;BME280;26497;52.494;7.546;2022-10-26T00:55:23;100908.06;;;13.72;65.41
40788;BME280;26497;52.494;7.546;2022-10-26T00:57:52;100914.31;;;13.65;65.48
40788;BME280;26497;52.494;7.546;2022-10-26T01:00:21;100903.75;;;13.62;65.44
40788;BME280;26497;52.494;7.546;2022-10-26T01:02:50;100907.31;;;13.57;65.58
40788;BME280;26497;52.494;7.546;2022-10-26T01:05:18;100914.44;;;13.49;65.42
40788;BME280;26497;52.494;7.546;2022-10-26T01:07:46;100910.94;;;13.46;65.39
40788;BME280;26497;52.494;7.546;2022-10-26T01:10:14;100903.88;;;13.45;65.38
40788;BME280;26497;52.494;7.546;2022-10-26T01:12:41;100904.81;;;13.36;65.51
40788;BME280;26497;52.494;7.546;2022-10-26T01:15:09;100903.09;;;13.32;65.99
40788;BME280;26497;52.494;7.546;2022-10-26T01:17:53;100899.50;;;13.34;65.94
40788;BME280;26497;52.494;7.546;2022-10-26T01:21:03;100901.28;;;13.32;65.92
40788;BME280;26497;52.494;7.546;2022-10-26T01:23:42;100896.03;;;13.31;65.91
40788;BME280;26497;52.494;7.546;2022-10-26T01:26:36;100895.09;;;13.35;66.11
40788;BME280;26497;52.494;7.546;2022-10-26T01:32:34;100885.41;;;13.34;65.71
40788;BME280;26497;52.494;7.546;2022-10-26T01:35:09;100877.47;;;13.31;65.75
40788;BME280;26497;52.494;7.546;2022-10-26T01:37:46;100872.16;;;13.32;65.75
40788;BME280;26497;52.494;7.546;2022-10-26T01:40:19;100866.84;;;13.35;65.94
40788;BME280;26497;52.494;7.546;2022-10-26T01:42:51;100870.41;;;13.33;65.75
40788;BME280;26497;52.494;7.546;2022-10-26T01:45:20;100866.88;;;13.34;65.95
40788;BME280;26497;52.494;7.546;2022-10-26T01:47:49;100866.81;;;13.40;65.71
40788;BME280;26497;52.494;7.546;2022-10-26T01:50:19;100864.91;;;13.56;65.17
40788;BME280;26497;52.494;7.546;2022-10-26T01:52:48;100866.66;;;13.62;64.94
40788;BME280;26497;52.494;7.546;2022-10-26T01:55:41;100862.28;;;13.57;65.02
40788;BME280;26497;52.494;7.546;2022-10-26T01:58:36;100859.66;;;13.53;64.95
40788;BME280;26497;52.494;7.546;2022-10-26T02:01:27;100856.78;;;13.75;64.29
40788;BME280;26497;52.494;7.546;2022-10-26T02:04:08;100863.06;;;13.64;64.85
40788;BME280;26497;52.494;7.546;2022-10-26T02:06:48;100858.78;;;13.52;65.41
40788;BME280;26497;52.494;7.546;2022-10-26T02:09:23;100848.94;;;13.67;64.87
40788;BME280;26497;52.494;7.546;2022-10-26T02:11:55;100849.75;;;13.72;65.27
40788;BME280;26497;52.494;7.546;2022-10-26T02:14:32;100848.81;;;13.78;64.94
40788;BME280;26497;52.494;7.546;2022-10-26T02:17:07;100834.59;;;13.86;64.74
40788;BME280;26497;52.494;7.546;2022-10-26T02:19:41;100836.41;;;13.81;65.17
40788;BME280;26497;52.494;7.546;2022-10-26T02:22:18;100839.75;;;13.96;64.94
40788;BME280;26497;52.494;7.546;2022-10-26T02:24:47;100831.88;;;13.91;65.42
40788;BME280;26497;52.494;7.546;2022-10-26T02:27:21;100835.47;;;13.85;66.37
40788;BME280;26497;52.494;7.546;2022-10-26T02:29:51;100831.91;;;13.90;66.59
40788;BME280;26497;52.494;7.546;2022-10-26T02:32:22;100830.00;;;13.98;66.87
40788;BME280;26497;52.494;7.546;2022-10-26T02:34:53;100827.28;;;14.04;66.95
40788;BME280;26497;52.494;7.546;2022-10-26T02:37:22;100821.00;;;14.11;66.89
40788;BME280;26497;52.494;7.546;2022-10-26T02:39:50;100824.41;;;14.24;66.58
40788;BME280;26497;52.494;7.546;2022-10-26T02:42:22;100828.00;;;14.20;66.65
40788;BME280;26497;52.494;7.546;2022-10-26T02:44:54;100822.56;;;14.29;66.61
40788;BME280;26497;52.494;7.546;2022-10-26T02:47:23;100827.06;;;14.23;66.83
40788;BME280;26497;52.494;7.546;2022-10-26T02:49:53;100811.88;;;14.34;66.49
40788;BME280;26497;52.494;7.546;2022-10-26T02:52:26;100811.88;;;14.34;66.39
40788;BME280;26497;52.494;7.546;2022-10-26T02:55:00;100819.03;;;14.29;66.66
40788;BME280;26497;52.494;7.546;2022-10-26T02:57:34;100822.53;;;14.31;66.75
40788;BME280;26497;52.494;7.546;2022-10-26T03:00:06;100818.13;;;14.30;66.91
40788;BME280;26497;52.494;7.546;2022-10-26T03:02:33;100822.53;;;14.31;66.69
40788;BME280;26497;52.494;7.546;2022-10-26T03:05:12;100818.91;;;14.40;66.91
40788;BME280;26497;52.494;7.546;2022-10-26T03:07:40;100815.34;;;14.39;66.94
40788;BME280;26497;52.494;7.546;2022-10-26T03:10:08;100809.19;;;14.37;67.07
40788;BME280;26497;52.494;7.546;2022-10-26T03:12:35;100810.09;;;14.36;67.27
40788;BME280;26497;52.494;7.546;2022-10-26T03:15:03;100810.88;;;14.43;67.05
40788;BME280;26497;52.494;7.546;2022-10-26T03:17:30;100814.41;;;14.45;67.07
40788;BME280;26497;52.494;7.546;2022-10-26T03:19:58;100815.25;;;14.45;66.82
40788;BME280;26497;52.494;7.546;2022-10-26T03:22:26;100805.59;;;14.43;67.04
40788;BME280;26497;52.494;7.546;2022-10-26T03:24:53;100810.03;;;14.41;66.89
40788;BME280;26497;52.494;7.546;2022-10-26T03:27:20;100810.91;;;14.41;66.97
40788;BME280;26497;52.494;7.546;2022-10-26T03:29:48;100813.59;;;14.40;67.09
40788;BME280;26497;52.494;7.546;2022-10-26T03:32:15;100808.25;;;14.41;66.85
40788;BME280;26497;52.494;7.546;2022-10-26T03:34:42;100806.53;;;14.37;66.89
40788;BME280;26497;52.494;7.546;2022-10-26T03:37:09;100810.03;;;14.39;66.89
40788;BME280;26497;52.494;7.546;2022-10-26T03:39:37;100798.56;;;14.37;66.71
40788;BME280;26497;52.494;7.546;2022-10-26T03:42:04;100801.28;;;14.34;66.81
40788;BME280;26497;52.494;7.546;2022-10-26T03:44:31;100803.09;;;14.29;67.00
40788;BME280;26497;52.494;7.546;2022-10-26T03:46:58;100795.16;;;14.29;66.84
40788;BME280;26497;52.494;7.546;2022-10-26T03:49:25;100788.97;;;14.27;66.90
40788;BME280;26497;52.494;7.546;2022-10-26T03:51:52;100790.75;;;14.28;66.78
40788;BME280;26497;52.494;7.546;2022-10-26T03:54:20;100793.50;;;14.20;66.93
40788;BME280;26497;52.494;7.546;2022-10-26T03:56:48;100792.63;;;14.20;66.71
40788;BME280;26497;52.494;7.546;2022-10-26T03:59:15;100796.31;;;14.08;66.66
40788;BME280;26497;52.494;7.546;2022-10-26T04:01:42;100791.16;;;13.94;67.06
40788;BME280;26497;52.494;7.546;2022-10-26T04:04:09;100796.59;;;13.86;66.89
40788;BME280;26497;52.494;7.546;2022-10-26T04:06:36;100793.09;;;13.82;67.44
40788;BME280;26497;52.494;7.546;2022-10-26T04:09:04;100794.88;;;13.82;67.85
40788;BME280;26497;52.494;7.546;2022-10-26T04:11:32;100794.91;;;13.80;67.93
40788;BME280;26497;52.494;7.546;2022-10-26T04:14:01;100792.88;;;13.99;67.61
40788;BME280;26497;52.494;7.546;2022-10-26T04:16:28;100791.06;;;14.03;67.50
40788;BME280;26497;52.494;7.546;2022-10-26T04:18:56;100784.00;;;14.02;67.29
40788;BME280;26497;52.494;7.546;2022-10-26T04:21:23;100780.50;;;14.00;67.09
40788;BME280;26497;52.494;7.546;2022-10-26T04:23:50;100784.13;;;13.93;66.93
40788;BME280;26497;52.494;7.546;2022-10-26T04:26:17;100790.38;;;13.87;66.94
40788;BME280;26497;52.494;7.546;2022-10-26T04:28:44;100794.00;;;13.80;66.85
40788;BME280;26497;52.494;7.546;2022-10-26T04:31:12;100787.94;;;13.70;67.25
40788;BME280;26497;52.494;7.546;2022-10-26T04:33:40;100793.22;;;13.73;67.32
40788;BME280;26497;52.494;7.546;2022-10-26T04:36:07;100793.22;;;13.73;67.41
40788;BME280;26497;52.494;7.546;2022-10-26T04:38:35;100787.06;;;13.69;67.81
40788;BME280;26497;52.494;7.546;2022-10-26T04:41:02;100790.66;;;13.64;67.91
40788;BME280;26497;52.494;7.546;2022-10-26T04:43:29;100803.06;;;13.62;68.13
40788;BME280;26497;52.494;7.546;2022-10-26T04:45:56;100791.47;;;13.72;68.36
40788;BME280;26497;52.494;7.546;2022-10-26T04:48:25;100784.22;;;13.86;67.94
40788;BME280;26497;52.494;7.546;2022-10-26T04:50:52;100788.66;;;13.83;68.25
40788;BME280;26497;52.494;7.546;2022-10-26T04:53:19;100795.75;;;13.81;68.06
40788;BME280;26497;52.494;7.546;2022-10-26T04:55:46;100796.66;;;13.80;67.92
40788;BME280;26497;52.494;7.546;2022-10-26T04:58:13;100799.34;;;13.78;67.88
40788;BME280;26497;52.494;7.546;2022-10-26T05:00:40;100789.56;;;13.83;67.82
40788;BME280;26497;52.494;7.546;2022-10-26T05:03:09;100789.56;;;13.83;68.16
40788;BME280;26497;52.494;7.546;2022-10-26T05:05:37;100786.72;;;13.97;67.93
40788;BME280;26497;52.494;7.546;2022-10-26T05:08:05;100784.84;;;14.04;67.99
40788;BME280;26497;52.494;7.546;2022-10-26T05:10:33;100787.38;;;14.13;68.04
40788;BME280;26497;52.494;7.546;2022-10-26T05:13:00;100789.09;;;14.18;67.95
40788;BME280;26497;52.494;7.546;2022-10-26T05:15:28;100785.56;;;14.20;67.77
40788;BME280;26497;52.494;7.546;2022-10-26T05:17:56;100789.16;;;14.14;67.60
40788;BME280;26497;52.494;7.546;2022-10-26T05:20:25;100785.56;;;14.19;67.30
40788;BME280;26497;52.494;7.546;2022-10-26T05:22:56;100789.19;;;14.11;67.54
40788;BME280;26497;52.494;7.546;2022-10-26T05:25:23;100783.06;;;14.06;67.23
40788;BME280;26497;52.494;7.546;2022-10-26T05:27:51;100784.91;;;14.01;67.21
40788;BME280;26497;52.494;7.546;2022-10-26T05:30:18;100778.81;;;13.93;67.39
40788;BME280;26497;52.494;7.546;2022-10-26T05:32:53;100779.66;;;13.95;67.35
40788;BME280;26497;52.494;7.546;2022-10-26T05:35:20;100777.13;;;13.89;67.18
40788;BME280;26497;52.494;7.546;2022-10-26T05:37:48;100780.69;;;13.88;67.16
40788;BME280;26497;52.494;7.546;2022-10-26T05:40:16;100773.66;;;13.83;67.30
40788;BME280;26497;52.494;7.546;2022-10-26T05:42:44;100778.09;;;13.80;67.57
40788;BME280;26497;52.494;7.546;2022-10-26T05:45:11;100781.59;;;13.83;67.39
40788;BME280;26497;52.494;7.546;2022-10-26T05:47:39;100783.31;;;13.86;67.36
40788;BME280;26497;52.494;7.546;2022-10-26T05:50:08;100779.88;;;13.79;67.57
40788;BME280;26497;52.494;7.546;2022-10-26T05:52:38;100779.00;;;13.80;67.65
40788;BME280;26497;52.494;7.546;2022-10-26T05:55:07;100786.00;;;13.83;67.94
40788;BME280;26497;52.494;7.546;2022-10-26T05:57:37;100785.09;;;13.89;68.24
40788;BME280;26497;52.494;7.546;2022-10-26T06:00:08;100789.41;;;13.93;68.43
40788;BME280;26497;52.494;7.546;2022-10-26T06:02:46;100786.56;;;14.08;68.24
40788;BME280;26497;52.494;7.546;2022-10-26T06:05:20;100788.16;;;14.22;68.40
40788;BME280;26497;52.494;7.546;2022-10-26T06:07:48;100795.16;;;14.30;68.19
40788;BME280;26497;52.494;7.546;2022-10-26T06:10:17;100797.72;;;14.37;68.24
40788;BME280;26497;52.494;7.546;2022-10-26T06:12:46;100799.38;;;14.44;68.58
40788;BME280;26497;52.494;7.546;2022-10-26T06:15:18;100806.31;;;14.53;68.67
40788;BME280;26497;52.494;7.546;2022-10-26T06:17:56;100799.97;;;14.63;68.76
40788;BME280;26497;52.494;7.546;2022-10-26T06:20:38;100797.13;;;14.79;68.52
40788;BME280;26497;52.494;7.546;2022-10-26T06:23:32;100807.50;;;14.93;68.08
40788;BME280;26497;52.494;7.546;2022-10-26T06:26:09;100808.34;;;14.96;68.47
40788;BME280;26497;52.494;7.546;2022-10-26T06:28:51;100804.00;;;14.92;68.44
40788;BME280;26497;52.494;7.546;2022-10-26T06:31:22;100803.84;;;15.00;68.49
40788;BME280;26497;52.494;7.546;2022-10-26T06:33:58;100807.31;;;15.07;68.46
40788;BME280;26497;52.494;7.546;2022-10-26T06:36:27;100805.34;;;15.16;68.24
40788;BME280;26497;52.494;7.546;2022-10-26T06:39:00;100807.13;;;15.16;68.23
40788;BME280;26497;52.494;7.546;2022-10-26T06:41:31;100807.13;;;15.16;68.73
40788;BME280;26497;52.494;7.546;2022-10-26T06:44:01;100799.94;;;15.23;68.69
40788;BME280;26497;52.494;7.546;2022-10-26T06:46:36;100803.47;;;15.23;68.59
40788;BME280;26497;52.494;7.546;2022-10-26T06:49:13;100805.09;;;15.30;68.62
40788;BME280;26497;52.494;7.546;2022-10-26T06:51:50;100806.84;;;15.31;68.76
40788;BME280;26497;52.494;7.546;2022-10-26T06:54:24;100807.53;;;15.43;68.99
40788;BME280;26497;52.494;7.546;2022-10-26T06:56:55;100810.06;;;15.51;69.01
40788;BME280;26497;52.494;7.546;2022-10-26T06:59:34;100811.78;;;15.53;69.00
40788;BME280;26497;52.494;7.546;2022-10-26T07:02:03;100809.91;;;15.58;69.30
40788;BME280;26497;52.494;7.546;2022-10-26T07:04:30;100813.28;;;15.67;69.16
40788;BME280;26497;52.494;7.546;2022-10-26T07:06:57;100814.16;;;15.69;69.32
40788;BME280;26497;52.494;7.546;2022-10-26T07:09:24;100810.44;;;15.77;69.15
40788;BME280;26497;52.494;7.546;2022-10-26T07:11:51;100807.63;;;15.87;69.34
40788;BME280;26497;52.494;7.546;2022-10-26T07:14:18;100811.00;;;15.95;68.95
40788;BME280;26497;52.494;7.546;2022-10-26T07:16:47;100814.53;;;15.96;69.01
40788;BME280;26497;52.494;7.546;2022-10-26T07:19:14;100802.88;;;16.03;69.13
40788;BME280;26497;52.494;7.546;2022-10-26T07:21:41;100815.09;;;16.12;68.98
40788;BME280;26497;52.494;7.546;2022-10-26T07:24:08;100815.59;;;16.29;68.95
40788;BME280;26497;52.494;7.546;2022-10-26T07:26:36;100822.53;;;16.38;68.71
40788;BME280;26497;52.494;7.546;2022-10-26T07:29:03;100819.81;;;16.40;68.79
40788;BME280;26497;52.494;7.546;2022-10-26T07:31:30;100815.25;;;16.45;68.97
40788;BME280;26497;52.494;7.546;2022-10-26T07:33:58;100822.97;;;16.57;69.29
40788;BME280;26497;52.494;7.546;2022-10-26T07:36:25;100821.81;;;16.69;69.32
40788;BME280;26497;52.494;7.546;2022-10-26T07:38:54;100829.50;;;16.81;69.54
40788;BME280;26497;52.494;7.546;2022-10-26T07:41:21;100827.69;;;16.84;69.06
40788;BME280;26497;52.494;7.546;2022-10-26T07:43:48;100830.91;;;17.00;69.46
40788;BME280;26497;52.494;7.546;2022-10-26T07:46:15;100820.19;;;17.01;69.20
40788;BME280;26497;52.494;7.546;2022-10-26T07:48:43;100824.31;;;17.15;69.64
40788;BME280;26497;52.494;7.546;2022-10-26T07:51:11;100825.28;;;17.12;68.98
40788;BME280;26497;52.494;7.546;2022-10-26T07:53:38;100824.28;;;17.16;68.73
40788;BME280;26497;52.494;7.546;2022-10-26T07:56:06;100817.66;;;17.31;69.53
40788;BME280;26497;52.494;7.546;2022-10-26T07:58:34;100825.03;;;17.56;69.47
40788;BME280;26497;52.494;7.546;2022-10-26T08:01:05;100820.13;;;17.72;69.65
40788;BME280;26497;52.494;7.546;2022-10-26T08:03:33;100816.19;;;17.86;69.47
40788;BME280;26497;52.494;7.546;2022-10-26T08:06:00;100816.97;;;17.89;69.12
40788;BME280;26497;52.494;7.546;2022-10-26T08:08:30;100820.28;;;17.99;68.82
40788;BME280;26497;52.494;7.546;2022-10-26T08:10:57;100808.34;;;18.12;68.98
40788;BME280;26497;52.494;7.546;2022-10-26T08:13:25;100815.84;;;18.30;69.27
40788;BME280;26497;52.494;7.546;2022-10-26T08:15:56;100806.78;;;18.35;68.99
40788;BME280;26497;52.494;7.546;2022-10-26T08:18:23;100806.69;;;18.38;68.71
40788;BME280;26497;52.494;7.546;2022-10-26T08:20:50;100814.25;;;18.52;69.15
40788;BME280;26497;52.494;7.546;2022-10-26T08:23:17;100808.75;;;18.57;68.65
40788;BME280;26497;52.494;7.546;2022-10-26T08:25:45;100806.13;;;18.84;69.24
40788;BME280;26497;52.494;7.546;2022-10-26T08:28:13;100799.50;;;18.97;69.01
40788;BME280;26497;52.494;7.546;2022-10-26T08:30:39;100799.53;;;18.96;68.57
40788;BME280;26497;52.494;7.546;2022-10-26T08:33:08;100796.88;;;18.96;68.25
40788;BME280;26497;52.494;7.546;2022-10-26T08:35:36;100799.63;;;18.93;67.86
40788;BME280;26497;52.494;7.546;2022-10-26T08:38:03;100792.94;;;18.79;67.99
40788;BME280;26497;52.494;7.546;2022-10-26T08:40:32;100786.59;;;18.82;68.15
40788;BME280;26497;52.494;7.546;2022-10-26T08:43:06;100785.47;;;18.89;68.45
40788;BME280;26497;52.494;7.546;2022-10-26T08:45:40;100781.97;;;18.89;68.48
40788;BME280;26497;52.494;7.546;2022-10-26T08:48:11;100785.19;;;19.00;68.03
40788;BME280;26497;52.494;7.546;2022-10-26T08:50:44;100788.78;;;19.24;68.91
40788;BME280;26497;52.494;7.546;2022-10-26T08:53:20;100786.31;;;19.45;69.17
40788;BME280;26497;52.494;7.546;2022-10-26T08:55:53;100789.06;;;19.67;69.49
40788;BME280;26497;52.494;7.546;2022-10-26T08:58:27;100785.72;;;19.86;69.50
40788;BME280;26497;52.494;7.546;2022-10-26T09:00:55;100788.53;;;20.07;69.41
40788;BME280;26497;52.494;7.546;2022-10-26T09:03:24;100784.03;;;20.07;68.46
40788;BME280;26497;52.494;7.546;2022-10-26T09:06:09;100793.44;;;20.19;67.70
40788;BME280;26497;52.494;7.546;2022-10-26T09:08:52;100794.69;;;20.32;68.33
40788;BME280;26497;52.494;7.546;2022-10-26T09:11:39;100798.56;;;20.47;67.72
40788;BME280;26497;52.494;7.546;2022-10-26T09:14:15;100800.16;;;20.53;67.22
40788;BME280;26497;52.494;7.546;2022-10-26T09:16:56;100792.97;;;20.54;67.04
40788;BME280;26497;52.494;7.546;2022-10-26T09:19:46;100797.81;;;20.66;67.74
40788;BME280;26497;52.494;7.546;2022-10-26T09:22:23;100807.94;;;21.04;69.61
40788;BME280;26497;52.494;7.546;2022-10-26T09:24:54;100799.66;;;22.12;74.70
40788;BME280;26497;52.494;7.546;2022-10-26T09:27:26;100804.28;;;23.38;76.81
40788;BME280;26497;52.494;7.546;2022-10-26T09:29:55;100803.34;;;24.72;76.45
40788;BME280;26497;52.494;7.546;2022-10-26T09:32:28;100805.50;;;25.42;67.08
40788;BME280;26497;52.494;7.546;2022-10-26T09:35:00;100811.78;;;25.88;65.57
40788;BME280;26497;52.494;7.546;2022-10-26T09:37:32;100804.88;;;26.55;62.35
40788;BME280;26497;52.494;7.546;2022-10-26T09:40:10;100801.13;;;26.85;59.00
40788;BME280;26497;52.494;7.546;2022-10-26T09:42:43;100802.41;;;27.19;55.93
40788;BME280;26497;52.494;7.546;2022-10-26T09:45:17;100798.34;;;27.65;52.51
40788;BME280;26497;52.494;7.546;2022-10-26T09:47:49;100807.53;;;27.89;48.40
40788;BME280;26497;52.494;7.546;2022-10-26T09:50:23;100816.34;;;28.18;47.48
40788;BME280;26497;52.494;7.546;2022-10-26T09:52:53;100809.88;;;28.45;44.59
40788;BME280;26497;52.494;7.546;2022-10-26T09:55:20;100805.91;;;28.87;40.98
40788;BME280;26497;52.494;7.546;2022-10-26T09:57:51;100812.00;;;29.26;38.99
40788;BME280;26497;52.494;7.546;2022-10-26T10:00:23;100811.91;;;29.39;38.82
40788;BME280;26497;52.494;7.546;2022-10-26T10:02:52;100810.63;;;29.32;36.46
40788;BME280;26497;52.494;7.546;2022-10-26T10:05:31;100820.38;;;28.74;36.42
40788;BME280;26497;52.494;7.546;2022-10-26T10:08:19;100829.84;;;28.68;36.92
40788;BME280;26497;52.494;7.546;2022-10-26T10:10:58;100842.44;;;28.32;36.36
40788;BME280;26497;52.494;7.546;2022-10-26T10:13:28;100843.97;;;27.72;37.96
40788;BME280;26497;52.494;7.546;2022-10-26T10:16:07;100845.94;;;27.95;37.86
40788;BME280;26497;52.494;7.546;2022-10-26T10:18:36;100852.53;;;28.04;38.28
40788;BME280;26497;52.494;7.546;2022-10-26T10:21:05;100857.50;;;28.10;38.06
40788;BME280;26497;52.494;7.546;2022-10-26T10:23:35;100858.50;;;27.84;37.58
40788;BME280;26497;52.494;7.546;2022-10-26T10:26:08;100857.09;;;27.78;38.12
40788;BME280;26497;52.494;7.546;2022-10-26T10:28:37;100855.66;;;27.59;38.31
40788;BME280;26497;52.494;7.546;2022-10-26T10:31:21;100856.22;;;27.90;37.84
40788;BME280;26497;52.494;7.546;2022-10-26T10:33:52;100855.69;;;28.11;37.66
40788;BME280;26497;52.494;7.546;2022-10-26T10:36:22;100853.06;;;27.71;37.37
40788;BME280;26497;52.494;7.546;2022-10-26T10:38:51;100860.78;;;27.64;38.12
40788;BME280;26497;52.494;7.546;2022-10-26T10:41:23;100858.50;;;27.58;37.44
40788;BME280;26497;52.494;7.546;2022-10-26T10:43:55;100860.78;;;27.36;38.28
40788;BME280;26497;52.494;7.546;2022-10-26T10:46:26;100846.91;;;27.28;38.11
40788;BME280;26497;52.494;7.546;2022-10-26T10:49:01;100849.00;;;27.37;38.48
40788;BME280;26497;52.494;7.546;2022-10-26T10:51:35;100851.00;;;27.21;38.48
40788;BME280;26497;52.494;7.546;2022-10-26T10:54:05;100848.97;;;27.25;38.18
40788;BME280;26497;52.494;7.546;2022-10-26T10:56:41;100856.88;;;27.15;37.92
40788;BME280;26497;52.494;7.546;2022-10-26T10:59:36;100857.63;;;26.89;38.53
40788;BME280;26497;52.494;7.546;2022-10-26T11:02:41;100860.72;;;26.83;38.44
40788;BME280;26497;52.494;7.546;2022-10-26T11:05:22;100861.28;;;26.32;38.95
40788;BME280;26497;52.494;7.546;2022-10-26T11:07:56;100865.13;;;26.13;39.94
40788;BME280;26497;52.494;7.546;2022-10-26T11:10:30;100859.16;;;26.23;39.83
40788;BME280;26497;52.494;7.546;2022-10-26T11:13:05;100867.47;;;26.34;39.73
40788;BME280;26497;52.494;7.546;2022-10-26T11:15:36;100866.47;;;26.06;41.05
40788;BME280;26497;52.494;7.546;2022-10-26T11:18:13;100865.69;;;26.04;40.75
40788;BME280;26497;52.494;7.546;2022-10-26T11:20:45;100869.22;;;26.20;40.42
40788;BME280;26497;52.494;7.546;2022-10-26T11:23:19;100855.13;;;26.30;40.11
40788;BME280;26497;52.494;7.546;2022-10-26T11:25:52;100856.03;;;26.58;39.98
40788;BME280;26497;52.494;7.546;2022-10-26T11:28:33;100846.75;;;26.62;39.61
40788;BME280;26497;52.494;7.546;2022-10-26T11:31:09;100852.38;;;26.59;38.97
40788;BME280;26497;52.494;7.546;2022-10-26T11:33:44;100866.13;;;26.27;40.41
40788;BME280;26497;52.494;7.546;2022-10-26T11:36:15;100868.78;;;25.69;41.65
40788;BME280;26497;52.494;7.546;2022-10-26T11:38:47;100867.81;;;25.84;41.77
40788;BME280;26497;52.494;7.546;2022-10-26T11:41:20;100864.94;;;25.73;42.17
40788;BME280;26497;52.494;7.546;2022-10-26T11:43:55;100858.75;;;26.00;41.82
40788;BME280;26497;52.494;7.546;2022-10-26T11:46:29;100868.09;;;26.52;40.98
40788;BME280;26497;52.494;7.546;2022-10-26T11:49:04;100871.44;;;26.28;41.46
40788;BME280;26497;52.494;7.546;2022-10-26T11:51:40;100869.81;;;26.82;40.52
40788;BME280;26497;52.494;7.546;2022-10-26T11:54:11;100861.13;;;26.62;40.56
40788;BME280;26497;52.494;7.546;2022-10-26T11:56:46;100865.22;;;26.55;39.84
40788;BME280;26497;52.494;7.546;2022-10-26T11:59:19;100863.38;;;26.56;40.52
40788;BME280;26497;52.494;7.546;2022-10-26T12:01:48;100856.63;;;26.48;40.85
40788;BME280;26497;52.494;7.546;2022-10-26T12:04:18;100857.28;;;26.52;41.04
40788;BME280;26497;52.494;7.546;2022-10-26T12:06:49;100858.19;;;26.38;40.96
40788;BME280;26497;52.494;7.546;2022-10-26T12:09:21;100871.50;;;26.12;41.42
40788;BME280;26497;52.494;7.546;2022-10-26T12:11:55;100866.84;;;25.85;41.64
40788;BME280;26497;52.494;7.546;2022-10-26T12:14:29;100876.06;;;26.12;42.55
40788;BME280;26497;52.494;7.546;2022-10-26T12:17:06;100870.69;;;26.68;40.86
40788;BME280;26497;52.494;7.546;2022-10-26T12:19:42;100879.19;;;27.31;39.47
40788;BME280;26497;52.494;7.546;2022-10-26T12:22:16;100884.31;;;27.36;39.47
40788;BME280;26497;52.494;7.546;2022-10-26T12:24:45;100886.19;;;27.21;39.09
40788;BME280;26497;52.494;7.546;2022-10-26T12:27:30;100887.31;;;27.31;39.62
40788;BME280;26497;52.494;7.546;2022-10-26T12:30:26;100893.09;;;26.85;39.88
40788;BME280;26497;52.494;7.546;2022-10-26T12:32:55;100905.78;;;26.55;41.11
40788;BME280;26497;52.494;7.546;2022-10-26T12:35:37;100907.09;;;26.91;40.45
40788;BME280;26497;52.494;7.546;2022-10-26T12:41:25;100910.09;;;26.72;41.01
40788;BME280;26497;52.494;7.546;2022-10-26T12:43:58;100892.34;;;26.83;40.64
40788;BME280;26497;52.494;7.546;2022-10-26T12:46:39;100900.53;;;27.63;40.65
40788;BME280;26497;52.494;7.546;2022-10-26T12:49:58;100908.72;;;28.15;38.31
40788;BME280;26497;52.494;7.546;2022-10-26T12:52:53;100910.66;;;28.26;37.77
40788;BME280;26497;52.494;7.546;2022-10-26T12:55:53;100914.94;;;28.54;37.89
40788;BME280;26497;52.494;7.546;2022-10-26T12:58:51;100912.75;;;28.60;37.48
40788;BME280;26497;52.494;7.546;2022-10-26T13:01:51;100911.25;;;28.55;37.13
40788;BME280;26497;52.494;7.546;2022-10-26T13:04:41;100927.59;;;28.30;37.35
40788;BME280;26497;52.494;7.546;2022-10-26T13:07:23;100933.44;;;28.23;38.14
40788;BME280;26497;52.494;7.546;2022-10-26T13:10:00;100934.66;;;28.19;37.91
40788;BME280;26497;52.494;7.546;2022-10-26T13:12:38;100937.41;;;27.79;38.71
40788;BME280;26497;52.494;7.546;2022-10-26T13:15:24;100932.53;;;27.84;39.26
40788;BME280;26497;52.494;7.546;2022-10-26T13:17:59;100928.78;;;28.25;37.84
40788;BME280;26497;52.494;7.546;2022-10-26T13:20:29;100934.69;;;28.57;37.69
40788;BME280;26497;52.494;7.546;2022-10-26T13:22:57;100928.50;;;28.54;37.66